createdAt,value
2023-01-26T05:03:45.779Z,53.58
2023-01-26T05:06:13.391Z,78.10
2023-01-26T05:08:40.733Z,65.40
2023-01-26T05:11:07.774Z,51.30
2023-01-26T05:13:36.018Z,62.13
2023-01-26T05:16:06.426Z,56.95
2023-01-26T05:18:33.659Z,56.40
2023-01-26T05:21:00.784Z,56.58
2023-01-26T05:23:27.821Z,57.75
2023-01-26T05:25:54.760Z,59.65
2023-01-26T05:28:21.813Z,69.68
2023-01-26T05:30:48.847Z,52.75
2023-01-26T05:33:16.421Z,53.28
2023-01-26T05:35:43.370Z,59.53
2023-01-26T05:38:10.283Z,53.80
2023-01-26T05:40:37.249Z,60.78
2023-01-26T05:43:04.326Z,62.88
2023-01-26T05:45:31.326Z,63.88
2023-01-26T05:47:58.334Z,60.45
2023-01-26T05:50:25.268Z,64.78
2023-01-26T05:52:52.409Z,59.80
2023-01-26T05:55:19.348Z,64.15
2023-01-26T05:57:46.428Z,62.15
2023-01-26T06:00:14.297Z,70.13
2023-01-26T06:02:42.168Z,65.32
2023-01-26T06:05:09.476Z,64.35
2023-01-26T06:07:36.461Z,58.92
2023-01-26T06:10:04.228Z,54.05
2023-01-26T06:12:35.516Z,57.10
2023-01-26T06:15:03.427Z,69.43
2023-01-26T06:17:30.470Z,67.90
2023-01-26T06:19:57.396Z,68.68
2023-01-26T06:22:24.855Z,57.95
2023-01-26T06:24:51.721Z,81.85
2023-01-26T06:27:18.772Z,57.83
2023-01-26T06:29:46.100Z,59.47
2023-01-26T06:32:16.193Z,61.75
2023-01-26T06:34:43.171Z,63.42
2023-01-26T06:37:10.345Z,68.13
2023-01-26T06:39:37.659Z,69.55
2023-01-26T06:42:05.334Z,59.53
2023-01-26T06:44:32.274Z,73.55
2023-01-26T06:46:59.159Z,60.33
2023-01-26T06:49:26.107Z,50.38
2023-01-26T06:51:57.563Z,61.83
2023-01-26T06:54:24.561Z,78.85
2023-01-26T06:56:51.470Z,73.35
2023-01-26T06:59:18.567Z,64.32
2023-01-26T07:01:49.962Z,56.67
2023-01-26T07:04:18.525Z,71.43
2023-01-26T07:06:45.818Z,60.60
2023-01-26T07:09:13.051Z,54.20
2023-01-26T07:11:40.078Z,68.47
2023-01-26T07:14:07.202Z,57.15
2023-01-26T07:16:34.223Z,67.82
2023-01-26T07:19:01.574Z,62.67
2023-01-26T07:21:28.704Z,59.75
2023-01-26T07:23:56.470Z,90.07
2023-01-26T07:26:26.565Z,69.30
2023-01-26T07:28:53.839Z,71.72
2023-01-26T07:31:21.019Z,78.30
2023-01-26T07:33:48.114Z,74.70
2023-01-26T07:36:15.033Z,76.90
2023-01-26T07:38:41.962Z,78.40
2023-01-26T07:41:12.055Z,66.35
2023-01-26T07:43:39.983Z,74.30
2023-01-26T07:46:07.069Z,65.50
2023-01-26T07:48:37.391Z,74.00
2023-01-26T07:51:05.684Z,64.40
2023-01-26T07:53:34.272Z,54.10
2023-01-26T07:56:16.123Z,71.90
2023-01-26T07:58:43.390Z,63.72
2023-01-26T08:01:13.063Z,66.63
2023-01-26T08:03:40.980Z,66.85
2023-01-26T08:06:11.915Z,64.63
2023-01-26T08:08:41.672Z,65.32
2023-01-26T08:11:09.989Z,53.53
2023-01-26T08:13:37.751Z,52.92
2023-01-26T08:16:09.579Z,70.65
2023-01-26T08:18:36.912Z,56.53
2023-01-26T08:21:04.414Z,59.78
2023-01-26T08:23:31.347Z,55.30
2023-01-26T08:26:06.603Z,48.95
2023-01-26T08:28:34.787Z,62.50
2023-01-26T08:31:14.203Z,48.45
2023-01-26T08:33:43.451Z,55.63
2023-01-26T08:36:15.341Z,62.90
2023-01-26T08:38:42.741Z,70.63
2023-01-26T08:41:09.983Z,54.72
2023-01-26T08:43:37.422Z,46.00
2023-01-26T08:46:05.329Z,39.58
2023-01-26T08:48:32.472Z,61.70
2023-01-26T08:51:01.764Z,38.97
2023-01-26T08:53:31.876Z,46.55
2023-01-26T08:56:02.309Z,32.97
2023-01-26T08:58:29.760Z,33.47
2023-01-26T09:00:56.833Z,46.00
2023-01-26T09:03:23.857Z,37.05
2023-01-26T09:05:50.908Z,44.58
2023-01-26T09:08:17.847Z,31.42
2023-01-26T09:10:47.507Z,38.22
2023-01-26T09:13:14.601Z,37.83
2023-01-26T09:15:41.559Z,35.53
2023-01-26T09:18:09.534Z,47.15
2023-01-26T09:20:38.307Z,48.95
2023-01-26T09:23:05.206Z,41.22
2023-01-26T09:25:32.276Z,36.22
2023-01-26T09:27:59.240Z,23.60
2023-01-26T09:30:26.414Z,27.85
2023-01-26T09:32:57.687Z,38.92
2023-01-26T09:35:24.642Z,47.75
2023-01-26T09:37:51.608Z,32.65
2023-01-26T09:40:34.453Z,36.97
2023-01-26T09:43:16.812Z,27.38
2023-01-26T09:45:51.319Z,30.40
2023-01-26T09:48:43.500Z,32.92
2023-01-26T09:51:23.461Z,31.48
2023-01-26T09:53:59.460Z,29.13
2023-01-26T09:56:30.263Z,30.55
2023-01-26T09:59:35.164Z,22.45
2023-01-26T10:04:36.812Z,35.20
2023-01-26T10:07:09.776Z,39.92
2023-01-26T10:09:39.875Z,32.15
2023-01-26T10:12:21.880Z,35.00
2023-01-26T10:14:59.285Z,36.58
2023-01-26T10:17:29.993Z,31.25
2023-01-26T10:20:09.563Z,46.83
2023-01-26T10:22:50.516Z,37.35
2023-01-26T10:25:38.604Z,28.92
2023-01-26T10:28:15.896Z,27.17
2023-01-26T10:30:45.060Z,31.35
2023-01-26T10:33:21.224Z,26.63
2023-01-26T10:35:48.321Z,31.60
2023-01-26T10:38:33.365Z,19.02
2023-01-26T10:41:03.460Z,20.15
2023-01-26T10:43:40.852Z,22.20
2023-01-26T10:46:29.928Z,31.42
2023-01-26T10:49:16.135Z,23.83
2023-01-26T10:51:46.022Z,23.20
2023-01-26T10:54:26.886Z,21.55
2023-01-26T10:57:39.783Z,22.20
2023-01-26T11:01:04.489Z,19.77
2023-01-26T11:03:40.873Z,25.33
2023-01-26T11:06:18.156Z,20.52
2023-01-26T11:08:45.137Z,24.73
2023-01-26T11:11:27.492Z,18.02
2023-01-26T11:14:26.905Z,25.40
2023-01-26T11:17:21.173Z,19.75
2023-01-26T11:19:55.806Z,29.00
2023-01-26T11:22:37.603Z,27.58
2023-01-26T11:25:13.670Z,22.77
2023-01-26T11:27:51.382Z,24.13
2023-01-26T11:30:33.121Z,20.75
2023-01-26T11:33:21.218Z,31.00
2023-01-26T11:35:56.904Z,15.48
2023-01-26T11:38:42.583Z,19.75
2023-01-26T11:41:27.753Z,16.60
2023-01-26T11:44:03.224Z,12.50
2023-01-26T11:47:00.644Z,17.38
2023-01-26T11:49:46.375Z,18.85
2023-01-26T11:52:19.350Z,16.23
2023-01-26T11:55:24.341Z,20.55
2023-01-26T11:58:18.847Z,21.48
2023-01-26T12:03:35.558Z,17.48
2023-01-26T12:06:17.817Z,14.60
2023-01-26T12:08:53.547Z,19.35
2023-01-26T12:11:44.303Z,19.45
2023-01-26T12:14:34.590Z,20.33
2023-01-26T12:17:29.981Z,13.10
2023-01-26T12:20:24.112Z,26.70
2023-01-26T12:23:10.570Z,22.48
2023-01-26T12:25:43.612Z,23.77
2023-01-26T12:28:29.300Z,32.90
2023-01-26T12:30:56.269Z,23.75
2023-01-26T12:33:24.089Z,17.50
2023-01-26T12:36:01.910Z,21.60
2023-01-26T12:38:48.118Z,24.73
2023-01-26T12:41:42.160Z,33.67
2023-01-26T12:44:39.599Z,23.60
2023-01-26T12:47:06.483Z,23.00
2023-01-26T12:49:46.249Z,23.58
2023-01-26T12:52:40.191Z,14.65
2023-01-26T12:55:17.101Z,18.95
2023-01-26T12:58:00.331Z,21.98
2023-01-26T13:00:35.723Z,25.70
2023-01-26T13:03:16.983Z,17.42
2023-01-26T13:06:00.534Z,13.32
2023-01-26T13:08:30.658Z,15.88
2023-01-26T13:11:09.247Z,15.88
2023-01-26T18:29:43.992Z,31.27
2023-01-26T18:32:11.244Z,34.85
2023-01-26T18:34:40.910Z,26.92
2023-01-26T18:37:08.512Z,29.15
2023-01-26T18:39:36.375Z,29.25
2023-01-26T18:42:03.915Z,20.13
2023-01-26T18:44:31.472Z,24.13
2023-01-26T18:46:58.955Z,14.55
2023-01-26T18:49:25.959Z,32.75
2023-01-26T18:51:53.016Z,32.13
2023-01-26T18:54:20.169Z,23.67
2023-01-26T18:56:47.432Z,24.77
2023-01-26T18:59:14.863Z,20.65
2023-01-26T19:01:43.729Z,22.05
2023-01-26T19:04:10.862Z,29.20
2023-01-26T19:06:37.925Z,21.33
2023-01-26T19:09:08.226Z,32.08
2023-01-26T19:11:38.182Z,32.47
2023-01-26T19:14:06.941Z,28.52
2023-01-26T19:16:34.111Z,14.35
2023-01-26T19:19:01.184Z,38.70
2023-01-26T19:21:28.863Z,27.20
2023-01-26T19:23:58.455Z,36.70
2023-01-26T19:26:29.463Z,18.95
2023-01-26T19:28:56.544Z,19.63
2023-01-26T19:31:26.461Z,27.58
2023-01-26T19:33:55.768Z,23.13
2023-01-26T19:36:25.322Z,16.08
2023-01-26T19:38:52.513Z,23.75
2023-01-26T19:41:20.856Z,24.27
2023-01-26T19:43:47.945Z,21.80
2023-01-26T19:46:16.763Z,29.75
2023-01-26T19:48:43.944Z,22.27
2023-01-26T19:51:15.566Z,19.08
2023-01-26T19:53:44.920Z,22.73
2023-01-26T19:56:18.147Z,18.42
2023-01-26T19:58:56.732Z,30.17
2023-01-26T20:01:24.777Z,25.20
2023-01-26T20:03:53.802Z,20.45
2023-01-26T20:06:23.328Z,34.85
2023-01-26T20:08:51.109Z,20.38
2023-01-26T20:11:19.850Z,26.70
2023-01-26T20:13:46.952Z,25.42
2023-01-26T20:16:13.993Z,22.65
2023-01-26T20:18:41.026Z,25.30
2023-01-26T20:21:08.189Z,14.43
2023-01-26T20:23:36.719Z,22.95
2023-01-26T20:26:09.885Z,28.50
2023-01-26T20:28:38.036Z,35.75
2023-01-26T20:31:10.903Z,30.50
2023-01-26T20:33:39.282Z,24.42
2023-01-26T20:36:08.898Z,14.32
2023-01-26T20:38:36.080Z,36.42
2023-01-26T20:41:11.167Z,23.75
2023-01-26T20:43:41.400Z,16.70
2023-01-26T20:46:15.684Z,23.88
2023-01-26T20:48:42.651Z,14.43
2023-01-26T20:51:18.186Z,27.52
2023-01-26T20:53:52.780Z,20.70
2023-01-26T20:56:23.794Z,28.27
2023-01-26T20:58:58.650Z,21.85
2023-01-26T21:01:29.739Z,14.93
2023-01-26T21:03:56.713Z,19.95
2023-01-26T21:06:24.685Z,20.80
2023-01-26T21:08:54.234Z,22.58
2023-01-26T21:11:22.659Z,13.65
2023-01-26T21:13:49.666Z,17.77
2023-01-26T21:16:17.254Z,16.80
2023-01-26T21:18:50.723Z,12.43
2023-01-26T21:21:18.542Z,12.82
2023-01-26T21:23:46.196Z,22.60
2023-01-26T21:26:15.384Z,15.80
2023-01-26T21:28:42.808Z,26.52
2023-01-26T21:31:14.581Z,12.70
2023-01-26T21:33:43.789Z,26.38
2023-01-26T21:36:14.036Z,12.95
2023-01-26T21:38:43.573Z,16.33
2023-01-26T21:41:30.741Z,11.93
2023-01-26T21:44:06.090Z,14.75
2023-01-26T21:46:33.953Z,17.52
2023-01-26T21:49:01.029Z,21.30
2023-01-26T21:51:47.218Z,26.05
2023-01-26T21:54:14.987Z,13.50
2023-01-26T21:56:42.305Z,15.43
2023-01-26T21:59:17.424Z,20.40
2023-01-26T22:01:53.072Z,35.10
2023-01-26T22:04:23.538Z,12.52
2023-01-26T22:06:52.088Z,12.13
2023-01-26T22:09:19.551Z,15.07
2023-01-26T22:11:46.646Z,24.88
2023-01-26T22:14:16.867Z,17.02
2023-01-26T22:16:43.945Z,9.15
2023-01-26T22:19:11.581Z,16.10
2023-01-26T22:21:38.971Z,14.40
2023-01-26T22:24:07.982Z,14.57
2023-01-26T22:26:37.424Z,16.52
2023-01-26T22:29:05.048Z,13.45
2023-01-26T22:31:32.972Z,11.57
2023-01-26T22:34:00.982Z,17.30
2023-01-26T22:36:28.581Z,17.83
2023-01-26T22:38:55.735Z,15.05
2023-01-26T22:41:26.986Z,17.27
2023-01-26T22:43:56.612Z,15.10
2023-01-26T22:46:24.665Z,15.45
2023-01-26T22:48:52.258Z,11.43
2023-01-26T22:51:21.738Z,13.98
2023-01-26T22:53:50.723Z,14.02
2023-01-26T22:56:19.115Z,17.33
2023-01-26T22:58:57.583Z,17.73
2023-01-26T23:01:30.074Z,17.15
2023-01-26T23:03:57.915Z,14.40
2023-01-26T23:06:25.659Z,18.15
2023-01-26T23:08:52.868Z,17.63
2023-01-26T23:11:22.743Z,17.95
2023-01-26T23:13:51.825Z,13.32
2023-01-26T23:16:19.585Z,22.52
2023-01-26T23:18:46.816Z,17.05
2023-01-26T23:21:13.831Z,24.02
2023-01-26T23:23:41.126Z,12.80
2023-01-26T23:26:08.540Z,17.60
2023-01-26T23:28:38.729Z,17.38
2023-01-26T23:31:06.416Z,18.38
2023-01-26T23:33:35.438Z,15.27
2023-01-26T23:36:03.444Z,18.42
2023-01-26T23:38:31.204Z,15.98
2023-01-26T23:41:02.139Z,13.45
2023-01-26T23:43:29.125Z,15.57
2023-01-26T23:45:57.901Z,22.77
2023-01-26T23:48:27.271Z,23.48
2023-01-26T23:51:02.824Z,16.17
2023-01-26T23:53:33.295Z,12.38
2023-01-26T23:56:04.636Z,12.45
